createdAt,value
2018-09-13T00:01:19.453Z,6.85
2018-09-13T00:03:47.701Z,5.83
2018-09-13T00:06:15.991Z,8.80
2018-09-13T00:08:44.305Z,6.90
2018-09-13T00:11:12.588Z,7.08
2018-09-13T00:13:40.948Z,10.13
2018-09-13T00:16:09.226Z,8.13
2018-09-13T00:18:37.523Z,6.85
2018-09-13T00:21:05.851Z,5.60
2018-09-13T00:23:34.114Z,6.92
2018-09-13T00:26:02.390Z,5.75
2018-09-13T00:28:30.760Z,5.75
2018-09-13T00:30:59.037Z,6.92
2018-09-13T00:33:27.315Z,7.83
2018-09-13T00:35:55.632Z,7.78
2018-09-13T00:38:23.958Z,5.53
2018-09-13T00:40:52.250Z,5.45
2018-09-13T00:43:20.510Z,6.00
2018-09-13T00:45:48.804Z,9.45
2018-09-13T00:48:17.124Z,5.87
2018-09-13T00:50:45.432Z,5.78
2018-09-13T00:53:13.747Z,5.45
2018-09-13T00:55:42.115Z,6.53
2018-09-13T00:58:10.397Z,9.80
2018-09-13T01:00:38.702Z,9.15
2018-09-13T01:03:10.036Z,7.10
2018-09-13T01:05:38.348Z,6.53
2018-09-13T01:08:06.685Z,7.72
2018-09-13T01:10:34.983Z,9.73
2018-09-13T01:13:03.268Z,11.18
2018-09-13T01:15:31.507Z,5.45
2018-09-13T01:17:59.817Z,6.60
2018-09-13T01:20:28.151Z,7.70
2018-09-13T01:22:56.529Z,7.30
2018-09-13T01:25:24.785Z,13.95
2018-09-13T01:27:53.013Z,8.63
2018-09-13T01:30:21.305Z,6.22
2018-09-13T01:32:49.618Z,7.55
2018-09-13T01:35:17.875Z,7.15
2018-09-13T01:37:46.293Z,9.35
2018-09-13T01:40:14.612Z,6.15
2018-09-13T01:42:42.943Z,10.90
2018-09-13T01:45:11.221Z,14.45
2018-09-13T01:47:39.540Z,8.18
2018-09-13T01:50:07.916Z,8.45
2018-09-13T01:52:36.874Z,9.70
2018-09-13T01:55:05.202Z,6.95
2018-09-13T01:57:33.425Z,11.83
2018-09-13T02:00:01.738Z,12.23
2018-09-13T02:02:30.070Z,9.03
2018-09-13T02:04:58.834Z,10.13
2018-09-13T02:07:27.214Z,13.62
2018-09-13T02:09:55.523Z,11.43
2018-09-13T02:12:23.794Z,8.63
2018-09-13T02:14:52.179Z,12.18
2018-09-13T02:17:20.477Z,10.18
2018-09-13T02:19:48.881Z,10.90
2018-09-13T02:22:17.854Z,12.60
2018-09-13T02:24:46.272Z,10.58
2018-09-13T02:27:14.511Z,10.48
2018-09-13T02:29:42.800Z,15.40
2018-09-13T02:32:11.057Z,10.18
2018-09-13T02:34:39.408Z,11.75
2018-09-13T02:37:07.701Z,11.53
2018-09-13T02:39:36.078Z,10.08
2018-09-13T02:42:04.268Z,9.78
2018-09-13T02:44:32.575Z,8.50
2018-09-13T02:47:00.850Z,13.48
2018-09-13T02:49:30.178Z,10.10
2018-09-13T02:51:58.550Z,9.25
2018-09-13T02:54:26.843Z,9.63
2018-09-13T02:56:55.109Z,9.53
2018-09-13T02:59:23.365Z,13.10
2018-09-13T03:01:51.655Z,9.75
2018-09-13T03:04:19.970Z,9.55
2018-09-13T03:06:48.349Z,10.00
2018-09-13T03:09:16.678Z,13.40
2018-09-13T03:11:45.010Z,9.15
2018-09-13T03:14:13.316Z,10.90
2018-09-13T03:16:41.959Z,9.50
2018-09-13T03:19:10.209Z,15.13
2018-09-13T03:21:38.529Z,12.53
2018-09-13T03:24:06.792Z,10.08
2018-09-13T03:26:35.059Z,11.60
2018-09-13T03:29:03.326Z,11.53
2018-09-13T03:31:31.629Z,14.95
2018-09-13T03:34:06.869Z,12.40
2018-09-13T03:36:35.107Z,12.68
2018-09-13T03:39:03.425Z,14.05
2018-09-13T03:41:31.707Z,12.55
2018-09-13T03:43:59.955Z,14.58
2018-09-13T03:46:28.210Z,10.60
2018-09-13T03:48:56.480Z,15.38
2018-09-13T03:51:24.752Z,14.55
2018-09-13T03:53:53.060Z,10.00
2018-09-13T03:56:21.298Z,10.23
2018-09-13T03:58:49.672Z,9.80
2018-09-13T04:01:17.912Z,13.30
2018-09-13T04:03:46.183Z,10.05
2018-09-13T04:06:14.491Z,12.82
2018-09-13T04:08:42.789Z,12.33
2018-09-13T04:11:11.051Z,13.80
2018-09-13T04:13:39.368Z,10.70
2018-09-13T04:16:07.669Z,12.30
2018-09-13T04:18:36.046Z,11.45
2018-09-13T04:21:04.302Z,23.05
2018-09-13T04:23:32.553Z,14.18
2018-09-13T04:26:01.044Z,14.20
2018-09-13T04:28:29.405Z,13.78
2018-09-13T04:30:57.814Z,17.32
2018-09-13T04:33:26.101Z,12.30
2018-09-13T04:35:54.494Z,15.08
2018-09-13T04:38:22.741Z,20.05
2018-09-13T04:40:51.126Z,15.65
2018-09-13T04:43:19.409Z,17.17
2018-09-13T04:45:47.889Z,22.80
2018-09-13T04:48:16.570Z,21.42
2018-09-13T04:50:44.801Z,20.48
2018-09-13T04:53:13.009Z,18.23
2018-09-13T04:55:41.282Z,15.13
2018-09-13T04:58:09.528Z,20.32
2018-09-13T05:00:37.839Z,17.50
2018-09-13T05:03:06.091Z,22.40
2018-09-13T05:05:34.393Z,19.50
2018-09-13T05:08:02.748Z,20.57
2018-09-13T05:10:31.051Z,16.35
2018-09-13T05:12:59.316Z,20.02
2018-09-13T05:15:27.641Z,18.95
2018-09-13T05:17:55.922Z,21.82
2018-09-13T05:20:24.243Z,27.42
2018-09-13T05:22:52.459Z,17.87
2018-09-13T05:25:20.753Z,26.02
2018-09-13T05:27:49.013Z,20.10
2018-09-13T05:30:17.325Z,21.90
2018-09-13T05:32:45.638Z,18.77
2018-09-13T05:35:14.217Z,19.95
2018-09-13T05:37:42.497Z,20.45
2018-09-13T05:40:10.769Z,19.25
2018-09-13T05:42:39.065Z,19.15
2018-09-13T05:45:07.377Z,17.02
2018-09-13T05:47:35.680Z,22.22
2018-09-13T05:50:04.034Z,22.13
2018-09-13T05:52:32.321Z,16.23
2018-09-13T05:55:00.584Z,17.70
2018-09-13T05:57:28.898Z,23.35
2018-09-13T05:59:57.143Z,16.55
2018-09-13T06:02:25.405Z,15.98
2018-09-13T06:04:53.678Z,17.07
2018-09-13T06:07:22.010Z,19.85
2018-09-13T06:09:50.257Z,18.92
2018-09-13T06:12:18.559Z,19.25
2018-09-13T06:14:46.822Z,19.90
2018-09-13T06:17:15.154Z,16.95
2018-09-13T06:19:43.388Z,24.60
2018-09-13T06:22:11.679Z,21.57
2018-09-13T06:24:40.105Z,14.47
2018-09-13T06:27:08.475Z,22.40
2018-09-13T06:29:37.102Z,25.60
2018-09-13T06:32:05.421Z,28.98
2018-09-13T06:34:33.680Z,25.43
2018-09-13T06:37:02.234Z,19.65
2018-09-13T06:39:30.546Z,22.00
2018-09-13T06:41:58.828Z,21.05
2018-09-13T06:44:27.045Z,24.50
2018-09-13T06:46:55.304Z,18.82
2018-09-13T06:49:23.563Z,20.32
2018-09-13T06:51:51.804Z,22.13
2018-09-13T06:54:20.096Z,19.75
2018-09-13T06:56:48.410Z,18.27
2018-09-13T06:59:16.694Z,22.05
2018-09-13T07:01:45.106Z,18.70
2018-09-13T07:04:13.376Z,18.87
2018-09-13T07:06:41.695Z,16.87
2018-09-13T07:09:12.733Z,18.50
2018-09-13T07:11:40.977Z,15.55
2018-09-13T07:14:09.255Z,16.42
2018-09-13T07:16:37.537Z,17.42
2018-09-13T07:19:06.009Z,18.70
2018-09-13T07:21:34.266Z,19.60
2018-09-13T07:24:02.776Z,17.90
2018-09-13T07:26:31.043Z,21.40
2018-09-13T07:28:59.271Z,15.75
2018-09-13T07:31:34.388Z,18.57
2018-09-13T07:34:02.633Z,17.00
2018-09-13T07:36:30.913Z,16.70
2018-09-13T07:38:59.930Z,16.20
2018-09-13T07:41:28.181Z,15.38
2018-09-13T07:43:56.504Z,15.88
2018-09-13T07:46:24.806Z,16.02
2018-09-13T07:48:53.126Z,15.83
2018-09-13T07:51:22.376Z,14.75
2018-09-13T07:53:51.027Z,15.00
2018-09-13T07:56:19.374Z,13.90
2018-09-13T07:58:47.613Z,14.23
2018-09-13T08:01:15.934Z,14.53
2018-09-13T08:03:44.176Z,17.17
2018-09-13T08:06:12.438Z,11.12
2018-09-13T08:08:40.717Z,16.25
2018-09-13T08:11:08.982Z,7.35
2018-09-13T08:13:37.327Z,8.70
2018-09-13T08:16:05.542Z,14.35
2018-09-13T08:18:33.770Z,8.93
2018-09-13T08:21:02.052Z,9.55
2018-09-13T08:23:30.347Z,13.95
2018-09-13T08:25:58.671Z,11.08
2018-09-13T08:28:27.027Z,9.25
2018-09-13T08:30:55.282Z,8.40
2018-09-13T08:33:23.673Z,13.90
2018-09-13T08:35:51.789Z,8.33
2018-09-13T08:38:20.091Z,8.68
2018-09-13T08:40:48.348Z,7.85
2018-09-13T08:43:16.579Z,8.13
2018-09-13T08:45:44.845Z,8.75
2018-09-13T08:48:13.190Z,10.95
2018-09-13T08:50:41.436Z,8.85
2018-09-13T08:53:09.685Z,8.50
2018-09-13T08:55:37.980Z,9.75
2018-09-13T08:58:06.309Z,12.00
2018-09-13T09:00:37.629Z,6.72
2018-09-13T09:03:06.096Z,16.52
2018-09-13T09:05:34.398Z,7.55
2018-09-13T09:08:02.688Z,9.90
2018-09-13T09:10:31.800Z,14.93
2018-09-13T09:13:00.098Z,11.38
2018-09-13T09:15:28.340Z,8.63
2018-09-13T09:17:56.612Z,8.98
2018-09-13T09:20:24.910Z,10.68
2018-09-13T09:22:53.126Z,8.30
2018-09-13T09:25:21.453Z,6.97
2018-09-13T09:27:49.715Z,9.45
2018-09-13T09:30:17.948Z,11.83
2018-09-13T09:32:46.284Z,12.53
2018-09-13T09:35:14.556Z,6.92
2018-09-13T09:37:42.832Z,7.28
2018-09-13T09:40:11.500Z,9.08
2018-09-13T09:42:39.801Z,13.05
2018-09-13T09:45:08.628Z,7.35
2018-09-13T09:47:36.881Z,9.83
2018-09-13T09:50:05.533Z,10.00
2018-09-13T09:52:33.821Z,12.15
2018-09-13T09:55:02.071Z,11.30
2018-09-13T09:57:30.315Z,12.53
2018-09-13T09:59:58.627Z,10.08
2018-09-13T10:02:26.929Z,10.60
2018-09-13T10:04:55.200Z,9.23
2018-09-13T10:07:23.506Z,9.28
2018-09-13T10:09:51.785Z,12.15
2018-09-13T10:12:20.308Z,12.60
2018-09-13T10:14:53.877Z,15.10
2018-09-13T10:17:27.673Z,11.60
2018-09-13T10:20:01.385Z,7.92
2018-09-13T10:22:35.139Z,11.48
2018-09-13T10:25:08.915Z,9.33
2018-09-13T10:27:42.727Z,15.18
2018-09-13T10:30:16.487Z,12.60
2018-09-13T10:32:50.243Z,15.15
2018-09-13T10:36:25.612Z,12.53
2018-09-13T10:38:59.238Z,12.43
2018-09-13T10:41:33.073Z,10.10
2018-09-13T10:44:06.740Z,11.12
2018-09-13T10:46:34.996Z,16.32
2018-09-13T10:49:08.747Z,14.55
2018-09-13T10:51:42.467Z,12.82
2018-09-13T10:54:16.686Z,10.90
2018-09-13T10:56:44.943Z,15.48
2018-09-13T10:59:13.221Z,14.70
2018-09-13T11:01:41.544Z,10.85
2018-09-13T11:04:09.893Z,9.55
2018-09-13T11:06:38.068Z,11.33
2018-09-13T11:09:07.258Z,10.53
2018-09-13T11:11:35.543Z,9.73
2018-09-13T11:14:09.015Z,8.80
2018-09-13T11:16:37.275Z,8.80
2018-09-13T11:19:05.674Z,11.95
2018-09-13T11:21:34.001Z,8.40
2018-09-13T11:24:02.204Z,8.25
2018-09-13T11:26:30.504Z,9.05
2018-09-13T11:28:59.125Z,12.88
2018-09-13T11:31:27.496Z,6.50
2018-09-13T11:33:55.798Z,6.87
2018-09-13T11:36:24.287Z,10.35
2018-09-13T11:38:52.559Z,9.10
2018-09-13T11:41:20.836Z,13.68
2018-09-13T11:43:49.090Z,10.58
2018-09-13T11:46:17.378Z,7.75
2018-09-13T11:48:45.642Z,9.68
2018-09-13T11:51:13.878Z,8.15
2018-09-13T11:53:42.195Z,8.75
2018-09-13T11:56:10.522Z,7.47
2018-09-13T11:58:38.781Z,5.08
2018-09-13T12:01:07.262Z,8.43
2018-09-13T12:03:35.635Z,8.83
2018-09-13T12:06:03.958Z,9.60
2018-09-13T12:08:32.298Z,9.25
2018-09-13T12:11:01.461Z,11.28
2018-09-13T12:13:29.765Z,12.55
2018-09-13T12:15:58.151Z,10.50
2018-09-13T12:18:26.424Z,5.50
2018-09-13T12:20:54.647Z,6.85
2018-09-13T12:23:22.902Z,8.18
2018-09-13T12:25:51.160Z,8.45
2018-09-13T12:28:19.433Z,9.45
2018-09-13T12:30:47.661Z,13.80
2018-09-13T12:33:15.957Z,6.95
2018-09-13T12:35:44.212Z,7.55
2018-09-13T12:38:12.512Z,8.98
2018-09-13T12:40:40.826Z,9.23
2018-09-13T12:43:10.300Z,8.33
2018-09-13T12:45:39.622Z,7.50
2018-09-13T12:48:08.537Z,10.45
2018-09-13T12:50:36.890Z,7.30
2018-09-13T12:53:05.273Z,7.80
2018-09-13T12:55:39.010Z,7.53
2018-09-13T12:58:07.316Z,7.67
2018-09-13T13:00:35.548Z,12.33
2018-09-13T13:03:03.874Z,10.08
2018-09-13T13:05:32.115Z,6.10
2018-09-13T13:08:00.425Z,12.58
2018-09-13T13:10:28.733Z,9.45
2018-09-13T13:12:57.020Z,13.90
2018-09-13T13:15:25.388Z,4.50
2018-09-13T13:17:53.703Z,6.97
2018-09-13T13:20:21.996Z,13.68
2018-09-13T13:22:50.446Z,8.60
2018-09-13T13:25:19.052Z,6.95
2018-09-13T13:27:47.421Z,7.35
2018-09-13T13:30:15.711Z,5.05
2018-09-13T13:32:43.966Z,6.33
2018-09-13T13:35:12.312Z,7.33
2018-09-13T13:37:40.605Z,7.17
2018-09-13T13:40:08.848Z,10.48
2018-09-13T13:42:37.154Z,6.42
2018-09-13T13:45:05.658Z,6.83
2018-09-13T13:47:34.028Z,4.15
2018-09-13T13:50:02.261Z,6.22
2018-09-13T13:52:30.515Z,4.80
2018-09-13T13:54:58.779Z,9.90
2018-09-13T13:57:27.434Z,7.42
2018-09-13T13:59:55.880Z,10.95
2018-09-13T14:02:24.399Z,7.90
2018-09-13T14:04:52.788Z,6.22
2018-09-13T14:07:21.255Z,8.98
2018-09-13T14:09:49.755Z,12.13
2018-09-13T14:12:17.918Z,7.62
2018-09-13T14:14:46.242Z,7.53
2018-09-13T14:17:14.522Z,9.10
2018-09-13T14:19:42.859Z,5.87
2018-09-13T14:22:11.117Z,8.05
2018-09-13T14:24:39.373Z,7.37
2018-09-13T14:27:07.988Z,6.97
2018-09-13T14:29:36.347Z,11.45
2018-09-13T14:32:05.437Z,5.83
2018-09-13T14:34:33.748Z,9.38
2018-09-13T14:37:01.989Z,8.33
2018-09-13T14:39:30.290Z,8.18
2018-09-13T14:41:58.632Z,10.32
2018-09-13T14:44:27.635Z,7.25
2018-09-13T14:46:55.904Z,11.80
2018-09-13T14:49:24.168Z,5.92
2018-09-13T14:51:52.497Z,6.78
2018-09-13T14:54:20.789Z,6.95
2018-09-13T14:56:49.689Z,6.40
2018-09-13T14:59:17.994Z,7.58
2018-09-13T15:01:46.299Z,8.10
2018-09-13T15:04:14.596Z,13.32
2018-09-13T15:06:42.945Z,7.53
2018-09-13T15:09:12.711Z,8.13
2018-09-13T15:11:41.506Z,7.12
2018-09-13T15:14:09.827Z,6.10
2018-09-13T15:16:38.149Z,12.00
2018-09-13T15:19:07.734Z,8.20
2018-09-13T15:21:36.039Z,5.85
2018-09-13T15:24:04.422Z,7.65
2018-09-13T15:26:32.775Z,10.32
2018-09-13T15:29:01.049Z,8.43
2018-09-13T15:31:29.469Z,7.00
2018-09-13T15:33:57.657Z,9.53
2018-09-13T15:36:26.938Z,11.50
2018-09-13T15:44:51.301Z,8.15
2018-09-13T15:47:19.721Z,7.30
2018-09-13T15:49:48.088Z,8.60
2018-09-13T15:52:16.382Z,9.68
2018-09-13T15:54:44.696Z,8.15
2018-09-13T15:57:13.232Z,13.80
2018-09-13T15:59:41.519Z,9.10
2018-09-13T16:02:09.864Z,9.33
2018-09-13T16:04:38.259Z,10.28
2018-09-13T16:07:06.843Z,8.43
2018-09-13T16:09:35.142Z,6.12
2018-09-13T16:12:03.407Z,6.20
2018-09-13T16:14:38.673Z,7.47
2018-09-13T16:17:06.971Z,9.83
2018-09-13T16:19:35.225Z,4.87
2018-09-13T16:22:03.488Z,9.68
2018-09-13T16:24:31.747Z,8.25
2018-09-13T16:27:00.085Z,7.35
2018-09-13T16:29:28.415Z,7.45
2018-09-13T16:31:56.797Z,8.18
2018-09-13T16:34:25.147Z,5.95
2018-09-13T16:37:05.101Z,7.20
2018-09-13T16:39:38.642Z,7.00
2018-09-13T16:42:12.433Z,3.77
2018-09-13T16:44:46.150Z,7.22
2018-09-13T16:47:29.268Z,6.92
2018-09-13T16:49:58.618Z,10.55
2018-09-13T16:52:27.827Z,6.97
2018-09-13T16:54:56.251Z,3.80
2018-09-13T16:57:24.576Z,7.78
2018-09-13T16:59:52.906Z,8.88
2018-09-13T17:02:21.285Z,10.05
2018-09-13T17:04:50.043Z,8.93
2018-09-13T17:07:18.690Z,6.42
2018-09-13T17:09:47.012Z,7.62
2018-09-13T17:12:15.316Z,11.68
2018-09-13T17:14:43.584Z,8.75
2018-09-13T17:17:11.954Z,10.75
2018-09-13T17:19:40.289Z,10.00
2018-09-13T17:22:08.780Z,8.13
2018-09-13T17:24:37.079Z,7.55
2018-09-13T17:27:05.412Z,9.93
2018-09-13T17:29:33.705Z,6.15
2018-09-13T17:32:02.249Z,8.58
2018-09-13T17:34:30.981Z,15.80
2018-09-13T17:36:59.293Z,9.00
2018-09-13T17:39:27.578Z,6.10
2018-09-13T17:41:56.949Z,7.92
2018-09-13T17:44:25.247Z,9.08
2018-09-13T17:46:53.630Z,9.93
2018-09-13T17:49:21.973Z,11.73
2018-09-13T17:51:50.597Z,7.70
2018-09-13T17:54:18.963Z,9.65
2018-09-13T17:56:47.233Z,9.68
2018-09-13T17:59:15.539Z,8.08
2018-09-13T18:01:43.856Z,10.68
2018-09-13T18:04:12.998Z,13.08
2018-09-13T18:06:41.415Z,10.38
2018-09-13T18:09:10.932Z,12.25
2018-09-13T18:11:39.568Z,14.93
2018-09-13T18:14:07.954Z,8.73
2018-09-13T18:16:36.432Z,11.28
2018-09-13T18:19:04.801Z,9.33
2018-09-13T18:21:33.113Z,9.78
2018-09-13T18:24:01.464Z,17.00
2018-09-13T18:26:29.750Z,11.68
2018-09-13T18:28:58.066Z,16.27
2018-09-13T18:31:26.450Z,9.80
2018-09-13T18:33:55.997Z,12.50
2018-09-13T18:36:29.372Z,11.10
2018-09-13T18:38:58.913Z,11.12
2018-09-13T18:41:27.240Z,11.45
2018-09-13T18:43:55.660Z,9.73
2018-09-13T18:46:24.040Z,12.90
2018-09-13T18:48:52.496Z,14.00
2018-09-13T18:51:21.454Z,11.53
2018-09-13T18:53:50.255Z,11.75
2018-09-13T18:56:18.644Z,14.53
2018-09-13T18:58:47.469Z,12.33
2018-09-13T19:01:18.110Z,10.18
2018-09-13T19:03:46.520Z,10.65
2018-09-13T19:06:14.871Z,11.45
2018-09-13T19:08:43.212Z,14.18
2018-09-13T19:11:11.603Z,12.03
2018-09-13T19:13:40.083Z,13.13
2018-09-13T19:16:09.213Z,15.60
2018-09-13T19:18:37.515Z,14.40
2018-09-13T19:21:05.858Z,15.70
2018-09-13T19:23:34.178Z,16.07
2018-09-13T19:26:02.635Z,13.45
2018-09-13T19:28:30.942Z,19.27
2018-09-13T19:30:59.259Z,13.25
2018-09-13T19:33:28.462Z,13.03
2018-09-13T19:35:57.250Z,14.93
2018-09-13T19:38:26.632Z,12.68
2018-09-13T19:40:55.023Z,18.02
2018-09-13T19:43:23.896Z,15.40
2018-09-13T19:45:52.766Z,12.40
2018-09-13T19:48:21.204Z,17.25
2018-09-13T19:50:49.655Z,16.45
2018-09-13T19:53:17.859Z,13.62
2018-09-13T19:55:46.153Z,23.77
2018-09-13T19:58:14.515Z,19.70
2018-09-13T20:00:42.922Z,11.15
2018-09-13T20:03:11.205Z,15.40
2018-09-13T20:05:39.516Z,18.35
2018-09-13T20:08:07.814Z,18.45
2018-09-13T20:10:36.057Z,17.77
2018-09-13T20:13:04.503Z,16.45
2018-09-13T20:15:32.979Z,14.90
2018-09-13T20:18:01.400Z,19.62
2018-09-13T20:20:29.855Z,15.80
2018-09-13T20:22:58.382Z,12.85
2018-09-13T20:25:26.723Z,13.93
2018-09-13T20:27:55.001Z,20.02
2018-09-13T20:30:23.300Z,15.55
2018-09-13T20:32:51.612Z,18.57
2018-09-13T20:35:19.894Z,14.90
2018-09-13T20:37:48.269Z,15.93
2018-09-13T20:40:16.603Z,18.07
2018-09-13T20:42:45.249Z,17.02
2018-09-13T20:45:13.516Z,14.43
2018-09-13T20:47:41.778Z,17.90
2018-09-13T20:50:10.108Z,16.15
2018-09-13T20:52:39.184Z,14.75
2018-09-13T20:55:07.488Z,17.45
2018-09-13T20:57:36.043Z,14.23
2018-09-13T21:00:04.765Z,13.13
2018-09-13T21:02:33.301Z,20.15
2018-09-13T21:05:01.583Z,19.10
2018-09-13T21:07:29.863Z,13.08
2018-09-13T21:09:58.164Z,16.32
2018-09-13T21:12:26.490Z,13.43
2018-09-13T21:14:54.789Z,13.98
2018-09-13T21:17:23.100Z,13.03
2018-09-13T21:19:51.409Z,16.73
2018-09-13T21:22:19.675Z,12.03
2018-09-13T21:24:47.960Z,11.97
2018-09-13T21:27:16.285Z,12.20
2018-09-13T21:29:44.720Z,14.98
2018-09-13T21:32:12.966Z,9.13
2018-09-13T21:34:41.246Z,8.95
2018-09-13T21:37:09.618Z,11.15
2018-09-13T21:39:37.954Z,16.17
2018-09-13T21:42:06.305Z,7.75
2018-09-13T21:44:34.695Z,11.50
2018-09-13T21:47:03.000Z,11.15
2018-09-13T21:49:31.336Z,5.40
2018-09-13T21:52:06.294Z,10.72
2018-09-13T21:54:34.616Z,7.35
2018-09-13T21:57:03.024Z,9.25
2018-09-13T21:59:31.413Z,10.80
2018-09-13T22:01:59.739Z,7.57
2018-09-13T22:04:28.090Z,7.05
2018-09-13T22:06:56.342Z,9.40
2018-09-13T22:09:24.588Z,9.78
2018-09-13T22:11:52.891Z,8.15
2018-09-13T22:14:21.161Z,12.10
2018-09-13T22:16:49.446Z,13.43
2018-09-13T22:19:17.784Z,9.30
2018-09-13T22:21:46.095Z,6.22
2018-09-13T22:24:14.437Z,7.97
2018-09-13T22:26:42.752Z,9.78
2018-09-13T22:29:11.038Z,8.60
2018-09-13T22:31:39.274Z,8.45
2018-09-13T22:34:08.135Z,9.53
2018-09-13T22:36:36.993Z,9.85
2018-09-13T22:39:08.130Z,9.50
2018-09-13T22:41:37.032Z,10.43
2018-09-13T22:44:05.355Z,11.45
2018-09-13T22:46:33.683Z,8.83
2018-09-13T22:49:01.982Z,7.58
2018-09-13T22:51:30.204Z,9.05
2018-09-13T22:53:58.462Z,8.25
2018-09-13T22:56:26.720Z,9.75
2018-09-13T22:58:55.014Z,8.10
2018-09-13T23:01:23.289Z,8.38
2018-09-13T23:03:51.653Z,6.70
2018-09-13T23:06:19.966Z,9.65
2018-09-13T23:08:48.228Z,9.25
2018-09-13T23:11:16.446Z,12.35
2018-09-13T23:13:44.760Z,7.10
2018-09-13T23:16:13.050Z,4.67
2018-09-13T23:18:41.828Z,8.10
2018-09-13T23:21:10.104Z,7.95
2018-09-13T23:23:38.361Z,9.78
2018-09-13T23:26:06.606Z,13.43
2018-09-13T23:28:34.859Z,9.15
2018-09-13T23:31:03.072Z,7.35
2018-09-13T23:33:31.349Z,6.12
2018-09-13T23:35:59.622Z,6.15
2018-09-13T23:38:27.927Z,11.70
2018-09-13T23:40:56.280Z,15.00
2018-09-13T23:43:24.590Z,13.72
2018-09-13T23:45:52.833Z,12.40
2018-09-13T23:48:21.087Z,10.43
2018-09-13T23:50:49.418Z,11.25
2018-09-13T23:53:17.744Z,9.03
2018-09-13T23:55:46.025Z,11.93
2018-09-13T23:58:14.276Z,10.48
